sensor_id;sensor_type;location;lat;lon;timestamp;pressure;altitude;pressure_sealevel;temperature;humidity
9189;BME280;34313;50.780;6.084;2023-05-07T00:01:59;99470.44;;;13.68;100.00
9189;BME280;34313;50.780;6.084;2023-05-07T00:04:24;99473.81;;;13.70;100.00
9189;BME280;34313;50.780;6.084;2023-05-07T00:06:50;99478.03;;;13.72;100.00
9189;BME280;34313;50.780;6.084;2023-05-07T00:09:16;99475.19;;;13.75;100.00
9189;BME280;34313;50.780;6.084;2023-05-07T00:11:41;99477.41;;;13.82;100.00
9189;BME280;34313;50.780;6.084;2023-05-07T00:14:07;99476.38;;;13.95;100.00
9189;BME280;34313;50.780;6.084;2023-05-07T00:16:32;99472.47;;;14.01;100.00
9189;BME280;34313;50.780;6.084;2023-05-07T00:18:57;99464.25;;;14.04;100.00
9189;BME280;34313;50.780;6.084;2023-05-07T00:21:23;99463.09;;;14.08;100.00
9189;BME280;34313;50.780;6.084;2023-05-07T00:23:51;99476.00;;;14.13;100.00
9189;BME280;34313;50.780;6.084;2023-05-07T00:26:16;99468.03;;;14.13;100.00
9189;BME280;34313;50.780;6.084;2023-05-07T00:28:42;99472.91;;;14.19;100.00
9189;BME280;34313;50.780;6.084;2023-05-07T00:31:07;99465.56;;;14.23;100.00
9189;BME280;34313;50.780;6.084;2023-05-07T00:33:32;99463.66;;;14.25;100.00
9189;BME280;34313;50.780;6.084;2023-05-07T00:35:58;99477.63;;;14.27;100.00
9189;BME280;34313;50.780;6.084;2023-05-07T00:38:23;99466.69;;;14.31;100.00
9189;BME280;34313;50.780;6.084;2023-05-07T00:40:48;99470.06;;;14.33;100.00
9189;BME280;34313;50.780;6.084;2023-05-07T00:43:14;99467.41;;;14.33;100.00
9189;BME280;34313;50.780;6.084;2023-05-07T00:45:40;99465.50;;;14.35;100.00
9189;BME280;34313;50.780;6.084;2023-05-07T00:48:05;99468.16;;;14.35;100.00
9189;BME280;34313;50.780;6.084;2023-05-07T00:50:31;99466.38;;;14.36;100.00
9189;BME280;34313;50.780;6.084;2023-05-07T00:52:58;99472.38;;;14.38;100.00
9189;BME280;34313;50.780;6.084;2023-05-07T00:55:23;99461.91;;;14.36;100.00
9189;BME280;34313;50.780;6.084;2023-05-07T00:57:49;99463.59;;;14.37;100.00
9189;BME280;34313;50.780;6.084;2023-05-07T01:00:16;99466.47;;;14.34;100.00
9189;BME280;34313;50.780;6.084;2023-05-07T01:02:42;99469.13;;;14.34;100.00
9189;BME280;34313;50.780;6.084;2023-05-07T01:05:10;99461.28;;;14.33;100.00
9189;BME280;34313;50.780;6.084;2023-05-07T01:07:38;99461.28;;;14.33;100.00
9189;BME280;34313;50.780;6.084;2023-05-07T01:10:06;99457.91;;;14.31;100.00
9189;BME280;34313;50.780;6.084;2023-05-07T01:12:32;99445.81;;;14.27;100.00
9189;BME280;34313;50.780;6.084;2023-05-07T01:14:58;99459.81;;;14.29;100.00
9189;BME280;34313;50.780;6.084;2023-05-07T01:17:24;99452.19;;;14.24;100.00
9189;BME280;34313;50.780;6.084;2023-05-07T01:19:49;99457.28;;;14.27;100.00
9189;BME280;34313;50.780;6.084;2023-05-07T01:22:16;99446.91;;;14.24;100.00
9189;BME280;34313;50.780;6.084;2023-05-07T01:24:45;99443.75;;;14.19;100.00
9189;BME280;34313;50.780;6.084;2023-05-07T01:27:11;99440.59;;;14.14;100.00
9189;BME280;34313;50.780;6.084;2023-05-07T01:29:36;99446.34;;;14.08;100.00
9189;BME280;34313;50.780;6.084;2023-05-07T01:32:02;99445.22;;;13.99;100.00
9189;BME280;34313;50.780;6.084;2023-05-07T01:34:30;99433.81;;;13.86;100.00
9189;BME280;34313;50.780;6.084;2023-05-07T01:36:56;99444.53;;;13.84;100.00
9189;BME280;34313;50.780;6.084;2023-05-07T01:39:29;99447.84;;;13.75;100.00
9189;BME280;34313;50.780;6.084;2023-05-07T01:41:55;99437.94;;;13.66;100.00
9189;BME280;34313;50.780;6.084;2023-05-07T01:44:22;99439.53;;;13.55;100.00
9189;BME280;34313;50.780;6.084;2023-05-07T01:46:47;99437.00;;;13.54;100.00
9189;BME280;34313;50.780;6.084;2023-05-07T01:49:14;99434.34;;;13.54;100.00
9189;BME280;34313;50.780;6.084;2023-05-07T01:51:39;99431.72;;;13.54;100.00
9189;BME280;34313;50.780;6.084;2023-05-07T01:54:05;99429.38;;;13.49;100.00
9189;BME280;34313;50.780;6.084;2023-05-07T01:56:31;99424.53;;;13.43;100.00
9189;BME280;34313;50.780;6.084;2023-05-07T01:58:57;99430.25;;;13.37;100.00
9189;BME280;34313;50.780;6.084;2023-05-07T02:01:22;99420.97;;;13.31;100.00
9189;BME280;34313;50.780;6.084;2023-05-07T02:03:47;99425.81;;;13.24;100.00
9189;BME280;34313;50.780;6.084;2023-05-07T02:06:13;99426.97;;;13.20;100.00
9189;BME280;34313;50.780;6.084;2023-05-07T02:08:38;99422.00;;;13.16;100.00
9189;BME280;34313;50.780;6.084;2023-05-07T02:11:04;99429.50;;;13.09;100.00
9189;BME280;34313;50.780;6.084;2023-05-07T02:13:31;99431.88;;;13.01;100.00
9189;BME280;34313;50.780;6.084;2023-05-07T02:15:57;99434.94;;;12.95;100.00
9189;BME280;34313;50.780;6.084;2023-05-07T02:18:22;99434.19;;;12.93;100.00
9189;BME280;34313;50.780;6.084;2023-05-07T02:20:48;99439.69;;;12.90;100.00
9189;BME280;34313;50.780;6.084;2023-05-07T02:23:13;99446.78;;;12.89;100.00
9189;BME280;34313;50.780;6.084;2023-05-07T02:25:38;99444.25;;;12.88;100.00
9189;BME280;34313;50.780;6.084;2023-05-07T02:28:04;99445.94;;;12.89;100.00
9189;BME280;34313;50.780;6.084;2023-05-07T02:30:29;99451.00;;;12.92;100.00
9189;BME280;34313;50.780;6.084;2023-05-07T02:32:54;99463.00;;;12.97;100.00
9189;BME280;34313;50.780;6.084;2023-05-07T02:35:20;99453.88;;;13.01;100.00
9189;BME280;34313;50.780;6.084;2023-05-07T02:37:45;99459.59;;;13.08;100.00
9189;BME280;34313;50.780;6.084;2023-05-07T02:40:11;99460.03;;;13.15;100.00
9189;BME280;34313;50.780;6.084;2023-05-07T02:42:36;99454.38;;;13.19;100.00
9189;BME280;34313;50.780;6.084;2023-05-07T02:45:02;99467.09;;;13.27;100.00
9189;BME280;34313;50.780;6.084;2023-05-07T02:47:27;99449.41;;;13.28;100.00
9189;BME280;34313;50.780;6.084;2023-05-07T02:49:54;99452.78;;;13.30;100.00
9189;BME280;34313;50.780;6.084;2023-05-07T02:52:20;99452.50;;;13.34;100.00
9189;BME280;34313;50.780;6.084;2023-05-07T02:54:45;99442.97;;;13.32;100.00
9189;BME280;34313;50.780;6.084;2023-05-07T02:57:10;99449.75;;;13.36;100.00
9189;BME280;34313;50.780;6.084;2023-05-07T02:59:36;99451.22;;;13.40;100.00
9189;BME280;34313;50.780;6.084;2023-05-07T03:02:01;99449.41;;;13.40;100.00
9189;BME280;34313;50.780;6.084;2023-05-07T03:04:26;99447.94;;;13.36;100.00
9189;BME280;34313;50.780;6.084;2023-05-07T03:06:52;99449.75;;;13.36;100.00
9189;BME280;34313;50.780;6.084;2023-05-07T03:09:17;99450.97;;;13.30;100.00
9189;BME280;34313;50.780;6.084;2023-05-07T03:11:42;99446.03;;;13.26;100.00
9189;BME280;34313;50.780;6.084;2023-05-07T03:14:08;99442.75;;;13.22;100.00
9189;BME280;34313;50.780;6.084;2023-05-07T03:16:33;99447.28;;;13.20;100.00
9189;BME280;34313;50.780;6.084;2023-05-07T03:18:58;99441.25;;;13.18;100.00
9189;BME280;34313;50.780;6.084;2023-05-07T03:21:24;99444.00;;;13.16;100.00
9189;BME280;34313;50.780;6.084;2023-05-07T03:23:49;99438.19;;;13.11;100.00
9189;BME280;34313;50.780;6.084;2023-05-07T03:26:14;99433.25;;;13.07;100.00
9189;BME280;34313;50.780;6.084;2023-05-07T03:28:40;99433.53;;;13.02;100.00
9189;BME280;34313;50.780;6.084;2023-05-07T03:31:05;99429.97;;;13.03;100.00
9189;BME280;34313;50.780;6.084;2023-05-07T03:33:33;99425.09;;;12.97;100.00
9189;BME280;34313;50.780;6.084;2023-05-07T03:35:58;99427.00;;;12.95;100.00
9189;BME280;34313;50.780;6.084;2023-05-07T03:38:24;99433.34;;;12.92;100.00
9189;BME280;34313;50.780;6.084;2023-05-07T03:40:49;99427.53;;;12.87;100.00
9189;BME280;34313;50.780;6.084;2023-05-07T03:43:14;99429.31;;;12.86;100.00
9189;BME280;34313;50.780;6.084;2023-05-07T03:45:40;99430.28;;;12.85;100.00
9189;BME280;34313;50.780;6.084;2023-05-07T03:48:05;99439.69;;;12.90;100.00
9189;BME280;34313;50.780;6.084;2023-05-07T03:50:30;99441.28;;;12.92;100.00
9189;BME280;34313;50.780;6.084;2023-05-07T03:52:56;99434.00;;;12.96;100.00
9189;BME280;34313;50.780;6.084;2023-05-07T03:55:21;99440.34;;;13.06;100.00
9189;BME280;34313;50.780;6.084;2023-05-07T03:57:46;99442.66;;;13.11;100.00
9189;BME280;34313;50.780;6.084;2023-05-07T04:00:12;99442.13;;;13.18;100.00
9189;BME280;34313;50.780;6.084;2023-05-07T04:02:38;99437.47;;;13.22;100.00
9189;BME280;34313;50.780;6.084;2023-05-07T04:05:03;99432.03;;;13.23;100.00
9189;BME280;34313;50.780;6.084;2023-05-07T04:07:28;99440.41;;;13.30;100.00
9189;BME280;34313;50.780;6.084;2023-05-07T04:09:54;99436.63;;;13.34;100.00
9189;BME280;34313;50.780;6.084;2023-05-07T04:12:19;99438.94;;;13.39;100.00
9189;BME280;34313;50.780;6.084;2023-05-07T04:14:44;99436.81;;;13.44;100.00
9189;BME280;34313;50.780;6.084;2023-05-07T04:17:10;99434.34;;;13.54;100.00
9189;BME280;34313;50.780;6.084;2023-05-07T04:19:35;99438.25;;;13.61;100.00
9189;BME280;34313;50.780;6.084;2023-05-07T04:22:01;99437.94;;;13.66;100.00
9189;BME280;34313;50.780;6.084;2023-05-07T04:24:26;99434.94;;;13.70;100.00
9189;BME280;34313;50.780;6.084;2023-05-07T04:26:51;99435.44;;;13.75;100.00
9189;BME280;34313;50.780;6.084;2023-05-07T04:29:18;99425.59;;;13.77;100.00
9189;BME280;34313;50.780;6.084;2023-05-07T04:31:43;99423.22;;;13.86;100.00
9189;BME280;34313;50.780;6.084;2023-05-07T04:34:10;99424.78;;;13.88;100.00
9189;BME280;34313;50.780;6.084;2023-05-07T04:36:37;99430.38;;;13.96;100.00
9189;BME280;34313;50.780;6.084;2023-05-07T04:39:03;99426.31;;;14.04;100.00
9189;BME280;34313;50.780;6.084;2023-05-07T04:41:28;99420.81;;;14.07;100.00
9189;BME280;34313;50.780;6.084;2023-05-07T04:43:53;99422.03;;;14.14;100.00
9189;BME280;34313;50.780;6.084;2023-05-07T04:46:19;99432.66;;;14.25;100.00
9189;BME280;34313;50.780;6.084;2023-05-07T04:48:45;99437.31;;;14.34;100.00
9189;BME280;34313;50.780;6.084;2023-05-07T04:51:10;99436.09;;;14.38;100.00
9189;BME280;34313;50.780;6.084;2023-05-07T04:53:36;99429.16;;;14.49;100.00
9189;BME280;34313;50.780;6.084;2023-05-07T04:56:02;99442.69;;;14.57;100.00
9189;BME280;34313;50.780;6.084;2023-05-07T04:58:27;99439.59;;;14.63;100.00
9189;BME280;34313;50.780;6.084;2023-05-07T05:00:56;99448.53;;;14.73;100.00
9189;BME280;34313;50.780;6.084;2023-05-07T05:03:21;99450.72;;;14.80;100.00
9189;BME280;34313;50.780;6.084;2023-05-07T05:05:49;99446.38;;;14.79;100.00
9189;BME280;34313;50.780;6.084;2023-05-07T05:08:14;99460.63;;;14.89;100.00
9189;BME280;34313;50.780;6.084;2023-05-07T05:10:39;99461.34;;;15.02;100.00
9189;BME280;34313;50.780;6.084;2023-05-07T05:13:06;99457.53;;;15.06;100.00
9189;BME280;34313;50.780;6.084;2023-05-07T05:15:31;99462.59;;;15.21;100.00
9189;BME280;34313;50.780;6.084;2023-05-07T05:17:56;99462.47;;;15.34;100.00
9189;BME280;34313;50.780;6.084;2023-05-07T05:20:22;99463.44;;;15.44;100.00
9189;BME280;34313;50.780;6.084;2023-05-07T05:22:47;99468.75;;;15.55;100.00
9189;BME280;34313;50.780;6.084;2023-05-07T05:25:12;99465.72;;;15.71;100.00
9189;BME280;34313;50.780;6.084;2023-05-07T05:27:37;99467.53;;;15.82;100.00
9189;BME280;34313;50.780;6.084;2023-05-07T05:30:03;99458.81;;;15.91;100.00
9189;BME280;34313;50.780;6.084;2023-05-07T05:32:29;99467.38;;;16.06;100.00
9189;BME280;34313;50.780;6.084;2023-05-07T05:34:54;99469.13;;;16.17;100.00
9189;BME280;34313;50.780;6.084;2023-05-07T05:37:20;99468.25;;;16.28;100.00
9189;BME280;34313;50.780;6.084;2023-05-07T05:39:45;99474.03;;;16.33;100.00
9189;BME280;34313;50.780;6.084;2023-05-07T05:42:11;99473.94;;;16.23;99.37
9189;BME280;34313;50.780;6.084;2023-05-07T05:44:36;99477.19;;;16.26;98.97
9189;BME280;34313;50.780;6.084;2023-05-07T05:47:02;99483.69;;;16.34;98.47
9189;BME280;34313;50.780;6.084;2023-05-07T05:49:28;99485.38;;;16.35;98.62
9189;BME280;34313;50.780;6.084;2023-05-07T05:51:53;99482.84;;;16.33;97.87
9189;BME280;34313;50.780;6.084;2023-05-07T05:54:18;99478.72;;;16.40;97.45
9189;BME280;34313;50.780;6.084;2023-05-07T05:56:44;99488.84;;;16.47;96.95
9189;BME280;34313;50.780;6.084;2023-05-07T05:59:10;99475.81;;;16.64;96.03
9189;BME280;34313;50.780;6.084;2023-05-07T06:01:35;99488.22;;;16.75;96.16
9189;BME280;34313;50.780;6.084;2023-05-07T06:04:00;99490.19;;;16.94;94.10
9189;BME280;34313;50.780;6.084;2023-05-07T06:06:26;99488.66;;;17.13;93.89
9189;BME280;34313;50.780;6.084;2023-05-07T06:08:52;99478.91;;;17.33;93.04
9189;BME280;34313;50.780;6.084;2023-05-07T06:11:17;99489.53;;;17.54;89.54
9189;BME280;34313;50.780;6.084;2023-05-07T06:13:43;99486.28;;;17.50;88.61
9189;BME280;34313;50.780;6.084;2023-05-07T06:16:08;99486.66;;;17.76;88.36
9189;BME280;34313;50.780;6.084;2023-05-07T06:18:33;99489.84;;;18.01;87.30
9189;BME280;34313;50.780;6.084;2023-05-07T06:21:01;99484.41;;;18.22;84.78
9189;BME280;34313;50.780;6.084;2023-05-07T06:23:26;99492.81;;;18.37;84.11
9189;BME280;34313;50.780;6.084;2023-05-07T06:25:52;99491.84;;;18.58;82.37
9189;BME280;34313;50.780;6.084;2023-05-07T06:28:17;99501.25;;;18.71;80.79
9189;BME280;34313;50.780;6.084;2023-05-07T06:30:42;99497.72;;;18.81;80.83
9189;BME280;34313;50.780;6.084;2023-05-07T06:33:08;99499.03;;;18.86;80.40
9189;BME280;34313;50.780;6.084;2023-05-07T06:35:33;99503.50;;;18.96;79.86
9189;BME280;34313;50.780;6.084;2023-05-07T06:37:59;99507.56;;;19.10;79.30
9189;BME280;34313;50.780;6.084;2023-05-07T06:40:25;99499.91;;;19.24;78.47
9189;BME280;34313;50.780;6.084;2023-05-07T06:42:50;99498.34;;;19.32;77.19
9189;BME280;34313;50.780;6.084;2023-05-07T06:45:16;99500.38;;;19.57;76.29
9189;BME280;34313;50.780;6.084;2023-05-07T06:47:41;99501.38;;;19.84;75.61
9189;BME280;34313;50.780;6.084;2023-05-07T06:50:07;99502.28;;;20.02;73.48
9189;BME280;34313;50.780;6.084;2023-05-07T06:52:32;99494.66;;;20.08;71.96
9189;BME280;34313;50.780;6.084;2023-05-07T06:54:57;99502.19;;;20.12;72.00
9189;BME280;34313;50.780;6.084;2023-05-07T06:57:23;99499.09;;;20.17;71.33
9189;BME280;34313;50.780;6.084;2023-05-07T06:59:49;99508.72;;;20.10;71.11
9189;BME280;34313;50.780;6.084;2023-05-07T07:02:14;99503.59;;;20.16;69.89
9189;BME280;34313;50.780;6.084;2023-05-07T07:04:40;99498.66;;;20.21;70.79
9189;BME280;34313;50.780;6.084;2023-05-07T07:07:06;99509.78;;;20.53;69.76
9189;BME280;34313;50.780;6.084;2023-05-07T07:09:31;99514.97;;;20.64;69.02
9189;BME280;34313;50.780;6.084;2023-05-07T07:11:56;99509.69;;;20.72;67.41
9189;BME280;34313;50.780;6.084;2023-05-07T07:14:22;99510.38;;;20.74;68.20
9189;BME280;34313;50.780;6.084;2023-05-07T07:16:47;99512.00;;;20.67;68.13
9189;BME280;34313;50.780;6.084;2023-05-07T07:19:12;99506.69;;;20.75;67.20
9189;BME280;34313;50.780;6.084;2023-05-07T07:21:37;99514.41;;;20.78;66.95
9189;BME280;34313;50.780;6.084;2023-05-07T07:24:03;99510.88;;;20.96;66.10
9189;BME280;34313;50.780;6.084;2023-05-07T07:26:28;99516.31;;;21.12;65.40
9189;BME280;34313;50.780;6.084;2023-05-07T07:28:53;99509.72;;;20.99;64.48
9189;BME280;34313;50.780;6.084;2023-05-07T07:31:19;99510.88;;;21.22;63.62
9189;BME280;34313;50.780;6.084;2023-05-07T07:33:44;99514.13;;;21.34;63.29
9189;BME280;34313;50.780;6.084;2023-05-07T07:36:10;99512.13;;;21.36;62.68
9189;BME280;34313;50.780;6.084;2023-05-07T07:38:35;99514.56;;;21.82;61.60
9189;BME280;34313;50.780;6.084;2023-05-07T07:41:01;99513.03;;;22.22;60.06
9189;BME280;34313;50.780;6.084;2023-05-07T07:43:27;99509.75;;;22.44;56.34
9189;BME280;34313;50.780;6.084;2023-05-07T07:45:52;99512.78;;;22.66;56.67
9189;BME280;34313;50.780;6.084;2023-05-07T07:48:18;99513.75;;;22.98;54.77
9189;BME280;34313;50.780;6.084;2023-05-07T07:50:43;99514.78;;;23.05;54.09
9189;BME280;34313;50.780;6.084;2023-05-07T07:53:08;99517.28;;;23.31;53.60
9189;BME280;34313;50.780;6.084;2023-05-07T07:55:38;99518.00;;;23.73;53.41
9189;BME280;34313;50.780;6.084;2023-05-07T07:58:04;99510.53;;;23.44;53.67
9189;BME280;34313;50.780;6.084;2023-05-07T08:00:30;99521.69;;;23.72;53.18
9189;BME280;34313;50.780;6.084;2023-05-07T08:02:55;99519.94;;;23.48;53.70
9189;BME280;34313;50.780;6.084;2023-05-07T08:05:20;99522.19;;;23.19;54.19
9189;BME280;34313;50.780;6.084;2023-05-07T08:07:47;99522.16;;;23.28;54.14
9189;BME280;34313;50.780;6.084;2023-05-07T08:10:16;99521.00;;;23.30;53.66
9189;BME280;34313;50.780;6.084;2023-05-07T08:12:47;99526.00;;;23.97;52.63
9189;BME280;34313;50.780;6.084;2023-05-07T08:15:12;99521.00;;;24.95;49.77
9189;BME280;34313;50.780;6.084;2023-05-07T08:17:38;99529.00;;;25.86;47.48
9189;BME280;34313;50.780;6.084;2023-05-07T08:20:04;99525.84;;;26.70;46.16
9189;BME280;34313;50.780;6.084;2023-05-07T08:22:29;99527.81;;;27.33;42.59
9189;BME280;34313;50.780;6.084;2023-05-07T08:24:55;99529.81;;;28.49;41.09
9189;BME280;34313;50.780;6.084;2023-05-07T08:27:20;99522.38;;;28.98;39.96
9189;BME280;34313;50.780;6.084;2023-05-07T08:29:46;99519.47;;;30.43;37.64
9189;BME280;34313;50.780;6.084;2023-05-07T08:32:12;99509.84;;;31.48;34.48
9189;BME280;34313;50.780;6.084;2023-05-07T08:34:38;99513.25;;;31.99;33.80
9189;BME280;34313;50.780;6.084;2023-05-07T08:37:04;99518.72;;;33.13;31.55
9189;BME280;34313;50.780;6.084;2023-05-07T08:39:29;99511.13;;;33.39;30.56
9189;BME280;34313;50.780;6.084;2023-05-07T08:41:55;99512.06;;;33.45;29.87
9189;BME280;34313;50.780;6.084;2023-05-07T08:44:22;99518.44;;;33.86;28.92
9189;BME280;34313;50.780;6.084;2023-05-07T08:46:48;99521.44;;;34.25;29.08
9189;BME280;34313;50.780;6.084;2023-05-07T08:49:19;99519.38;;;35.12;27.87
9189;BME280;34313;50.780;6.084;2023-05-07T08:51:45;99506.22;;;35.48;27.08
9189;BME280;34313;50.780;6.084;2023-05-07T08:54:11;99504.94;;;34.82;28.02
9189;BME280;34313;50.780;6.084;2023-05-07T08:56:37;99517.47;;;36.12;26.71
9189;BME280;34313;50.780;6.084;2023-05-07T08:59:02;99508.91;;;35.26;26.82
9189;BME280;34313;50.780;6.084;2023-05-07T09:01:28;99507.66;;;34.20;28.19
9189;BME280;34313;50.780;6.084;2023-05-07T09:03:54;99505.00;;;35.60;26.67
9189;BME280;34313;50.780;6.084;2023-05-07T09:06:20;99503.53;;;34.80;27.52
9189;BME280;34313;50.780;6.084;2023-05-07T09:08:52;99502.56;;;33.59;28.43
9189;BME280;34313;50.780;6.084;2023-05-07T09:11:24;99507.88;;;34.18;27.63
9189;BME280;34313;50.780;6.084;2023-05-07T09:13:54;99505.75;;;35.17;26.62
9189;BME280;34313;50.780;6.084;2023-05-07T09:16:21;99503.53;;;35.14;26.60
9189;BME280;34313;50.780;6.084;2023-05-07T09:18:50;99501.94;;;35.18;26.88
9189;BME280;34313;50.780;6.084;2023-05-07T09:21:19;99510.44;;;34.82;26.83
9189;BME280;34313;50.780;6.084;2023-05-07T09:23:45;99508.44;;;34.32;27.46
9189;BME280;34313;50.780;6.084;2023-05-07T09:26:10;99504.09;;;32.96;28.80
9189;BME280;34313;50.780;6.084;2023-05-07T09:28:43;99507.72;;;32.66;29.57
9189;BME280;34313;50.780;6.084;2023-05-07T09:31:10;99516.28;;;31.91;30.14
9189;BME280;34313;50.780;6.084;2023-05-07T09:33:36;99516.53;;;32.08;30.51
9189;BME280;34313;50.780;6.084;2023-05-07T09:36:09;99516.47;;;32.56;29.89
9189;BME280;34313;50.780;6.084;2023-05-07T09:38:36;99514.00;;;32.25;30.33
9189;BME280;34313;50.780;6.084;2023-05-07T09:41:12;99509.97;;;31.16;31.06
9189;BME280;34313;50.780;6.084;2023-05-07T09:43:39;99509.78;;;30.86;31.64
9189;BME280;34313;50.780;6.084;2023-05-07T09:46:15;99507.13;;;30.47;31.84
9189;BME280;34313;50.780;6.084;2023-05-07T09:48:43;99514.22;;;28.64;32.86
9189;BME280;34313;50.780;6.084;2023-05-07T09:51:25;99521.59;;;28.16;34.31
9189;BME280;34313;50.780;6.084;2023-05-07T09:53:53;99511.41;;;27.76;35.52
9189;BME280;34313;50.780;6.084;2023-05-07T09:56:19;99517.16;;;28.01;35.43
9189;BME280;34313;50.780;6.084;2023-05-07T09:58:46;99519.75;;;28.36;34.73
9189;BME280;34313;50.780;6.084;2023-05-07T10:01:12;99507.84;;;27.69;35.87
9189;BME280;34313;50.780;6.084;2023-05-07T10:03:40;99514.53;;;27.80;35.98
9189;BME280;34313;50.780;6.084;2023-05-07T10:06:08;99510.22;;;27.22;37.38
9189;BME280;34313;50.780;6.084;2023-05-07T10:08:35;99507.50;;;26.94;38.45
9189;BME280;34313;50.780;6.084;2023-05-07T10:11:01;99514.09;;;25.75;41.01
9189;BME280;34313;50.780;6.084;2023-05-07T10:13:26;99519.13;;;25.78;40.96
9189;BME280;34313;50.780;6.084;2023-05-07T10:15:52;99511.19;;;25.92;41.35
9189;BME280;34313;50.780;6.084;2023-05-07T10:18:19;99513.28;;;25.45;41.49
9189;BME280;34313;50.780;6.084;2023-05-07T10:20:51;99514.72;;;25.18;41.80
9189;BME280;34313;50.780;6.084;2023-05-07T10:23:19;99518.97;;;25.12;42.22
9189;BME280;34313;50.780;6.084;2023-05-07T10:25:46;99527.50;;;25.01;41.87
9189;BME280;34313;50.780;6.084;2023-05-07T10:28:12;99530.22;;;25.39;41.70
9189;BME280;34313;50.780;6.084;2023-05-07T10:33:13;99516.59;;;26.43;39.78
9189;BME280;34313;50.780;6.084;2023-05-07T10:35:43;99521.16;;;26.06;39.18
9189;BME280;34313;50.780;6.084;2023-05-07T10:38:09;99525.03;;;25.14;41.08
9189;BME280;34313;50.780;6.084;2023-05-07T10:40:35;99526.09;;;24.90;41.25
9189;BME280;34313;50.780;6.084;2023-05-07T10:43:02;99527.06;;;24.74;41.41
9189;BME280;34313;50.780;6.084;2023-05-07T10:45:30;99538.16;;;24.79;41.39
9189;BME280;34313;50.780;6.084;2023-05-07T10:50:35;99536.78;;;25.21;41.25
9189;BME280;34313;50.780;6.084;2023-05-07T10:55:49;99535.31;;;26.45;38.87
9189;BME280;34313;50.780;6.084;2023-05-07T11:00:46;99530.66;;;26.96;37.56
9189;BME280;34313;50.780;6.084;2023-05-07T11:03:12;99536.91;;;26.39;38.18
9189;BME280;34313;50.780;6.084;2023-05-07T11:05:38;99532.06;;;26.71;37.98
9189;BME280;34313;50.780;6.084;2023-05-07T11:08:04;99533.38;;;26.02;39.89
9189;BME280;34313;50.780;6.084;2023-05-07T11:10:49;99533.38;;;26.38;39.27
9189;BME280;34313;50.780;6.084;2023-05-07T11:13:16;99530.47;;;26.40;39.39
9189;BME280;34313;50.780;6.084;2023-05-07T11:15:46;99533.47;;;25.94;40.40
9189;BME280;34313;50.780;6.084;2023-05-07T11:18:16;99532.25;;;25.96;41.63
9189;BME280;34313;50.780;6.084;2023-05-07T11:26:08;99543.47;;;24.64;45.16
9189;BME280;34313;50.780;6.084;2023-05-07T11:28:41;99543.13;;;24.36;45.23
9189;BME280;34313;50.780;6.084;2023-05-07T11:31:07;99544.72;;;24.22;46.45
9189;BME280;34313;50.780;6.084;2023-05-07T11:33:33;99546.16;;;24.02;46.56
9189;BME280;34313;50.780;6.084;2023-05-07T11:36:00;99548.19;;;24.00;46.44
9189;BME280;34313;50.780;6.084;2023-05-07T11:38:28;99549.25;;;23.90;46.79
9189;BME280;34313;50.780;6.084;2023-05-07T11:40:58;99548.50;;;23.49;47.44
9189;BME280;34313;50.780;6.084;2023-05-07T11:43:26;99551.75;;;23.11;48.48
9189;BME280;34313;50.780;6.084;2023-05-07T11:45:52;99551.22;;;22.75;49.28
9189;BME280;34313;50.780;6.084;2023-05-07T11:48:18;99552.88;;;22.43;51.61
9189;BME280;34313;50.780;6.084;2023-05-07T11:50:53;99551.22;;;22.07;54.18
9189;BME280;34313;50.780;6.084;2023-05-07T11:53:20;99560.38;;;21.88;55.55
9189;BME280;34313;50.780;6.084;2023-05-07T11:55:46;99573.34;;;21.67;57.48
9189;BME280;34313;50.780;6.084;2023-05-07T11:58:12;99569.47;;;21.43;59.97
9189;BME280;34313;50.780;6.084;2023-05-07T12:00:52;99576.41;;;21.28;62.75
9189;BME280;34313;50.780;6.084;2023-05-07T12:03:18;99576.88;;;20.97;65.94
9189;BME280;34313;50.780;6.084;2023-05-07T12:05:45;99576.84;;;20.79;67.03
9189;BME280;34313;50.780;6.084;2023-05-07T12:08:14;99586.34;;;20.73;69.06
9189;BME280;34313;50.780;6.084;2023-05-07T12:10:41;99581.53;;;20.95;70.21
9189;BME280;34313;50.780;6.084;2023-05-07T12:13:27;99580.66;;;21.12;71.11
9189;BME280;34313;50.780;6.084;2023-05-07T12:15:53;99583.59;;;21.01;71.27
9189;BME280;34313;50.780;6.084;2023-05-07T12:18:19;99593.84;;;20.88;72.84
9189;BME280;34313;50.780;6.084;2023-05-07T12:20:46;99587.31;;;21.08;73.00
9189;BME280;34313;50.780;6.084;2023-05-07T12:23:12;99590.16;;;21.25;72.67
9189;BME280;34313;50.780;6.084;2023-05-07T12:25:39;99593.91;;;21.40;72.49
9189;BME280;34313;50.780;6.084;2023-05-07T12:28:05;99601.16;;;21.66;71.80
9189;BME280;34313;50.780;6.084;2023-05-07T12:30:32;99598.66;;;21.99;70.98
9189;BME280;34313;50.780;6.084;2023-05-07T12:33:01;99597.19;;;22.39;69.62
9189;BME280;34313;50.780;6.084;2023-05-07T12:35:31;99593.38;;;22.74;68.53
9189;BME280;34313;50.780;6.084;2023-05-07T12:37:58;99591.69;;;22.73;66.53
9189;BME280;34313;50.780;6.084;2023-05-07T12:40:41;99599.81;;;23.06;65.75
9189;BME280;34313;50.780;6.084;2023-05-07T12:43:07;99594.22;;;23.57;64.55
9189;BME280;34313;50.780;6.084;2023-05-07T12:45:41;99591.41;;;24.06;62.99
9189;BME280;34313;50.780;6.084;2023-05-07T12:48:09;99594.44;;;24.43;61.37
9189;BME280;34313;50.780;6.084;2023-05-07T12:50:35;99594.38;;;25.05;58.69
9189;BME280;34313;50.780;6.084;2023-05-07T12:53:03;99594.56;;;25.42;57.33
9189;BME280;34313;50.780;6.084;2023-05-07T12:55:31;99600.22;;;25.70;55.63
9189;BME280;34313;50.780;6.084;2023-05-07T12:58:00;99594.88;;;25.47;55.24
9189;BME280;34313;50.780;6.084;2023-05-07T13:00:52;99603.81;;;25.24;55.48
9189;BME280;34313;50.780;6.084;2023-05-07T13:03:26;99589.56;;;25.54;54.94
9189;BME280;34313;50.780;6.084;2023-05-07T13:05:53;99597.69;;;25.54;55.15
9189;BME280;34313;50.780;6.084;2023-05-07T13:08:27;99598.25;;;25.79;53.88
9189;BME280;34313;50.780;6.084;2023-05-07T13:10:53;99602.97;;;26.00;52.92
9189;BME280;34313;50.780;6.084;2023-05-07T13:13:19;99601.63;;;25.96;51.72
9189;BME280;34313;50.780;6.084;2023-05-07T13:15:45;99610.91;;;25.78;50.71
9189;BME280;34313;50.780;6.084;2023-05-07T13:18:11;99601.22;;;25.84;50.64
9189;BME280;34313;50.780;6.084;2023-05-07T13:20:36;99613.66;;;25.17;52.12